createdAt,value
2019-03-29T00:00:31.421Z,103301.23
2019-03-29T00:03:00.806Z,103303.52
2019-03-29T00:05:29.512Z,103297.83
2019-03-29T00:07:58.127Z,103300.52
2019-03-29T00:10:26.800Z,103294.83
2019-03-29T00:12:55.266Z,103290.83
2019-03-29T00:15:23.801Z,103300.05
2019-03-29T00:17:52.468Z,103292.19
2019-03-29T00:20:21.076Z,103297.97
2019-03-29T00:22:49.590Z,103292.91
2019-03-29T00:25:18.069Z,103299.28
2019-03-29T00:27:46.623Z,103296.97
2019-03-29T00:30:15.332Z,103292.70
2019-03-29T00:32:43.911Z,103293.98
2019-03-29T00:35:12.805Z,103292.09
2019-03-29T00:37:52.882Z,103281.37
2019-03-29T00:40:11.673Z,103278.90
2019-03-29T00:42:40.121Z,103277.49
2019-03-29T00:45:08.949Z,103270.56
2019-03-29T00:47:37.518Z,103265.89
2019-03-29T00:50:07.330Z,103260.77
2019-03-29T00:52:35.917Z,103258.80
2019-03-29T00:55:05.287Z,103265.28
2019-03-29T00:57:33.839Z,103261.13
2019-03-29T01:00:02.411Z,103255.08
2019-03-29T01:02:31.000Z,103249.09
2019-03-29T01:04:59.587Z,103257.48
2019-03-29T01:07:28.194Z,103252.09
2019-03-29T01:09:56.957Z,103244.45
2019-03-29T01:12:26.032Z,103239.14
2019-03-29T01:14:54.629Z,103235.23
2019-03-29T01:17:23.102Z,103234.33
2019-03-29T01:19:51.627Z,103235.68
2019-03-29T01:22:20.176Z,103226.54
2019-03-29T01:24:48.696Z,103226.82
2019-03-29T01:27:17.253Z,103226.58
2019-03-29T01:29:45.783Z,103225.91
2019-03-29T01:32:14.227Z,103219.69
2019-03-29T01:34:43.146Z,103215.50
2019-03-29T01:37:11.947Z,103215.95
2019-03-29T01:39:40.531Z,103218.81
2019-03-29T01:42:09.517Z,103218.16
2019-03-29T01:44:38.503Z,103220.19
2019-03-29T01:47:07.052Z,103204.88
2019-03-29T01:49:35.921Z,103198.16
2019-03-29T01:52:04.494Z,103201.68
2019-03-29T01:54:33.107Z,103193.23
2019-03-29T01:57:01.688Z,103193.47
2019-03-29T01:59:30.304Z,103191.20
2019-03-29T02:01:58.812Z,103181.64
2019-03-29T02:04:27.459Z,103181.34
2019-03-29T02:06:56.024Z,103173.42
2019-03-29T02:09:24.594Z,103174.77
2019-03-29T02:11:53.421Z,103170.00
2019-03-29T02:14:21.953Z,103174.00
2019-03-29T02:16:50.564Z,103164.63
2019-03-29T02:19:19.279Z,103164.70
2019-03-29T02:21:47.772Z,103163.70
2019-03-29T02:24:16.377Z,103157.11
2019-03-29T02:26:44.905Z,103157.26
2019-03-29T02:29:13.433Z,103152.62
2019-03-29T02:31:42.755Z,103160.98
2019-03-29T02:34:11.412Z,103157.23
2019-03-29T02:36:39.879Z,103155.45
2019-03-29T02:39:08.467Z,103151.23
2019-03-29T02:41:37.105Z,103152.92
2019-03-29T02:44:06.573Z,103150.88
2019-03-29T02:46:36.133Z,103153.36
2019-03-29T02:49:04.721Z,103152.11
2019-03-29T02:51:33.334Z,103154.05
2019-03-29T02:54:01.920Z,103158.11
2019-03-29T02:56:30.538Z,103156.44
2019-03-29T02:58:59.118Z,103150.80
2019-03-29T03:01:27.640Z,103150.68
2019-03-29T03:03:56.240Z,103147.20
2019-03-29T03:06:24.869Z,103150.34
2019-03-29T03:08:53.363Z,103152.58
2019-03-29T03:11:22.036Z,103149.77
2019-03-29T03:13:50.770Z,103156.95
2019-03-29T03:16:19.558Z,103158.91
2019-03-29T03:18:49.120Z,103155.59
2019-03-29T03:21:17.707Z,103153.23
2019-03-29T03:23:46.227Z,103164.40
2019-03-29T03:26:14.855Z,103168.30
2019-03-29T03:28:43.346Z,103173.23
2019-03-29T03:31:12.223Z,103177.19
2019-03-29T03:33:40.826Z,103183.20
2019-03-29T03:36:09.394Z,103179.91
2019-03-29T03:38:37.893Z,103178.83
2019-03-29T03:41:06.916Z,103172.09
2019-03-29T03:43:35.463Z,103175.25
2019-03-29T03:46:04.088Z,103174.34
2019-03-29T03:48:32.607Z,103173.14
2019-03-29T03:51:01.526Z,103173.28
2019-03-29T03:53:30.719Z,103186.19
2019-03-29T03:56:00.644Z,103181.53
2019-03-29T03:58:29.551Z,103185.40
2019-03-29T04:00:58.869Z,103183.41
2019-03-29T04:03:27.677Z,103185.11
2019-03-29T04:05:56.396Z,103180.97
2019-03-29T04:08:25.494Z,103172.20
2019-03-29T04:10:54.112Z,103174.23
2019-03-29T04:13:22.704Z,103170.84
2019-03-29T04:15:51.332Z,103177.45
2019-03-29T04:18:19.906Z,103173.37
2019-03-29T04:20:48.515Z,103171.36
2019-03-29T04:23:19.398Z,103168.19
2019-03-29T04:25:47.972Z,103173.89
2019-03-29T04:28:16.535Z,103173.89
2019-03-29T04:30:45.038Z,103170.97
2019-03-29T04:33:13.532Z,103169.69
2019-03-29T04:35:42.106Z,103167.20
2019-03-29T04:38:11.738Z,103161.67
2019-03-29T04:40:40.255Z,103162.09
2019-03-29T04:43:08.827Z,103172.93
2019-03-29T04:45:37.451Z,103162.56
2019-03-29T04:48:06.559Z,103167.19
2019-03-29T04:50:35.251Z,103162.59
2019-03-29T04:53:04.246Z,103165.32
2019-03-29T04:55:32.902Z,103161.24
2019-03-29T04:58:01.339Z,103153.03
2019-03-29T05:00:29.965Z,103159.24
2019-03-29T05:02:58.564Z,103157.08
2019-03-29T05:05:27.136Z,103156.21
2019-03-29T05:07:55.830Z,103156.02
2019-03-29T05:10:24.422Z,103163.40
2019-03-29T05:12:53.272Z,103156.22
2019-03-29T05:15:21.822Z,103159.97
2019-03-29T05:17:50.417Z,103162.91
2019-03-29T05:20:19.178Z,103157.73
2019-03-29T05:22:47.735Z,103158.00
2019-03-29T05:25:16.181Z,103155.02
2019-03-29T05:27:44.825Z,103152.80
2019-03-29T05:30:13.362Z,103150.58
2019-03-29T05:32:42.667Z,103153.61
2019-03-29T05:35:11.264Z,103154.50
2019-03-29T05:37:39.788Z,103154.67
2019-03-29T05:40:08.511Z,103154.20
2019-03-29T05:42:37.076Z,103147.36
2019-03-29T05:45:07.471Z,103151.11
2019-03-29T05:47:35.980Z,103156.91
2019-03-29T05:50:06.227Z,103164.94
2019-03-29T05:52:34.849Z,103166.76
2019-03-29T05:55:04.017Z,103165.34
2019-03-29T05:57:32.650Z,103160.70
2019-03-29T06:00:01.169Z,103162.17
2019-03-29T06:02:29.700Z,103154.96
2019-03-29T06:04:58.295Z,103152.27
2019-03-29T06:07:26.915Z,103153.62
2019-03-29T06:09:55.471Z,103156.51
2019-03-29T06:12:24.005Z,103143.03
2019-03-29T06:14:52.616Z,103143.85
2019-03-29T06:17:21.257Z,103148.13
2019-03-29T06:19:49.766Z,103149.06
2019-03-29T06:22:18.301Z,103145.35
2019-03-29T06:24:46.938Z,103148.20
2019-03-29T06:27:15.516Z,103148.28
2019-03-29T06:29:44.054Z,103154.80
2019-03-29T06:32:13.654Z,103150.66
2019-03-29T06:34:42.326Z,103143.75
2019-03-29T06:37:11.813Z,103146.39
2019-03-29T06:39:40.849Z,103139.42
2019-03-29T06:42:09.281Z,103129.44
2019-03-29T06:44:37.880Z,103129.64
2019-03-29T06:47:06.716Z,103134.76
2019-03-29T06:49:35.299Z,103125.64
2019-03-29T06:52:03.931Z,103122.42
2019-03-29T06:54:33.221Z,103109.80
2019-03-29T06:57:01.961Z,103106.12
2019-03-29T06:59:30.560Z,103090.90
2019-03-29T07:01:59.077Z,103095.52
2019-03-29T07:04:27.706Z,103099.56
2019-03-29T07:06:56.263Z,103093.48
2019-03-29T07:09:24.815Z,103097.87
2019-03-29T07:11:53.481Z,103104.06
2019-03-29T07:14:22.138Z,103110.21
2019-03-29T07:16:50.647Z,103108.42
2019-03-29T07:19:19.215Z,103111.91
2019-03-29T07:21:47.946Z,103106.11
2019-03-29T07:24:16.555Z,103108.94
2019-03-29T07:26:45.072Z,103106.93
2019-03-29T07:29:14.617Z,103105.34
2019-03-29T07:31:43.231Z,103107.94
2019-03-29T07:34:11.795Z,103098.64
2019-03-29T07:36:40.467Z,103106.89
2019-03-29T07:39:09.078Z,103106.41
2019-03-29T07:41:37.667Z,103101.52
2019-03-29T07:44:06.279Z,103100.92
2019-03-29T07:46:34.899Z,103095.95
2019-03-29T07:49:03.489Z,103096.05
2019-03-29T07:51:32.038Z,103097.09
2019-03-29T07:54:00.697Z,103094.06
2019-03-29T07:56:29.301Z,103098.75
2019-03-29T07:58:57.858Z,103098.64
2019-03-29T08:01:26.441Z,103093.88
2019-03-29T08:03:54.943Z,103096.91
2019-03-29T08:06:23.578Z,103091.86
2019-03-29T08:08:52.092Z,103087.45
2019-03-29T08:11:26.351Z,103089.47
2019-03-29T08:13:51.051Z,103094.61
2019-03-29T08:16:19.666Z,103093.16
2019-03-29T08:18:48.627Z,103086.74
2019-03-29T08:21:17.152Z,103088.05
2019-03-29T08:23:45.839Z,103087.89
2019-03-29T08:26:14.496Z,103090.14
2019-03-29T08:28:42.977Z,103090.44
2019-03-29T08:31:11.671Z,103083.74
2019-03-29T08:33:40.135Z,103084.77
2019-03-29T08:36:08.611Z,103082.80
2019-03-29T08:38:37.212Z,103081.35
2019-03-29T08:41:05.854Z,103081.75
2019-03-29T08:43:34.454Z,103075.69
2019-03-29T08:46:03.079Z,103082.95
2019-03-29T08:48:31.755Z,103081.59
2019-03-29T08:51:00.384Z,103085.00
2019-03-29T08:53:29.020Z,103078.94
2019-03-29T08:55:57.554Z,103073.30
2019-03-29T08:58:26.021Z,103079.10
2019-03-29T09:00:54.677Z,103075.34
2019-03-29T09:03:24.034Z,103067.44
2019-03-29T09:05:52.708Z,103068.55
2019-03-29T09:08:21.293Z,103061.70
2019-03-29T09:10:49.918Z,103057.91
2019-03-29T09:13:18.494Z,103053.56
2019-03-29T09:15:47.142Z,103049.57
2019-03-29T09:18:15.730Z,103049.57
2019-03-29T09:20:44.216Z,103051.13
2019-03-29T09:23:12.918Z,103043.20
2019-03-29T09:25:41.537Z,103040.95
2019-03-29T09:28:10.127Z,103036.52
2019-03-29T09:30:39.008Z,103045.50
2019-03-29T09:33:07.592Z,103040.45
2019-03-29T09:35:36.209Z,103035.06
2019-03-29T09:38:05.084Z,103036.09
2019-03-29T09:40:33.677Z,103034.62
2019-03-29T09:43:09.603Z,103027.80
2019-03-29T09:45:32.875Z,103024.72
2019-03-29T09:48:01.415Z,103026.03
2019-03-29T09:50:30.017Z,103016.57
2019-03-29T09:53:01.204Z,103015.59
2019-03-29T09:55:28.938Z,103009.50
2019-03-29T09:57:57.492Z,103009.50
2019-03-29T10:00:26.008Z,103003.92
2019-03-29T10:02:54.627Z,102999.46
2019-03-29T10:05:23.302Z,102997.41
2019-03-29T10:07:51.941Z,102992.92
2019-03-29T10:10:20.540Z,102984.30
2019-03-29T10:12:49.094Z,102983.09
2019-03-29T10:15:17.713Z,102983.13
2019-03-29T10:17:46.360Z,102975.64
2019-03-29T10:20:15.068Z,102981.27
2019-03-29T10:22:43.730Z,102973.74
2019-03-29T10:25:19.523Z,102970.92
2019-03-29T10:27:42.589Z,102970.64
2019-03-29T10:30:11.817Z,102964.77
2019-03-29T10:32:40.455Z,102962.88
2019-03-29T10:35:09.798Z,102952.20
2019-03-29T10:37:38.628Z,102946.16
2019-03-29T10:40:07.640Z,102943.02
2019-03-29T10:42:39.871Z,102935.98
2019-03-29T10:45:06.662Z,102934.75
2019-03-29T10:47:43.527Z,102930.28
2019-03-29T10:50:07.060Z,102928.70
2019-03-29T10:52:35.751Z,102923.20
2019-03-29T10:55:04.996Z,102918.64
2019-03-29T10:57:33.616Z,102918.00
2019-03-29T11:00:02.384Z,102914.91
2019-03-29T11:02:30.974Z,102907.87
2019-03-29T11:04:59.464Z,102906.95
2019-03-29T11:07:28.039Z,102905.51
2019-03-29T11:09:56.802Z,102897.37
2019-03-29T11:12:25.410Z,102897.63
2019-03-29T11:14:53.919Z,102899.16
2019-03-29T11:17:22.466Z,102888.98
2019-03-29T11:19:51.083Z,102885.75
2019-03-29T11:22:19.709Z,102881.35
2019-03-29T11:24:49.180Z,102877.63
2019-03-29T11:27:17.802Z,102880.78
2019-03-29T11:29:46.473Z,102874.02
2019-03-29T11:32:15.065Z,102870.97
2019-03-29T11:34:43.643Z,102867.09
2019-03-29T11:37:12.209Z,102869.57
2019-03-29T11:39:40.817Z,102863.11
2019-03-29T11:42:09.450Z,102861.39
2019-03-29T11:44:37.983Z,102851.26
2019-03-29T11:47:07.034Z,102851.81
2019-03-29T11:49:35.553Z,102850.16
2019-03-29T11:52:04.424Z,102846.70
2019-03-29T11:54:32.933Z,102846.57
2019-03-29T11:57:01.620Z,102832.89
2019-03-29T11:59:30.201Z,102837.49
2019-03-29T12:01:58.756Z,102826.72
2019-03-29T12:04:27.411Z,102826.94
2019-03-29T12:06:56.180Z,102823.16
2019-03-29T12:09:24.818Z,102823.16
2019-03-29T12:11:53.445Z,102812.86
2019-03-29T12:14:22.026Z,102812.13
2019-03-29T12:16:50.668Z,102811.20
2019-03-29T12:19:20.232Z,102813.72
2019-03-29T12:21:48.741Z,102804.99
2019-03-29T12:24:17.408Z,102802.72
2019-03-29T12:26:45.857Z,102803.22
2019-03-29T12:29:14.322Z,102792.87
2019-03-29T12:31:42.870Z,102791.08
2019-03-29T12:34:11.383Z,102787.57
2019-03-29T12:36:39.959Z,102791.35
2019-03-29T12:39:08.699Z,102787.91
2019-03-29T12:41:38.773Z,102781.09
2019-03-29T12:44:07.304Z,102773.37
2019-03-29T12:46:36.022Z,102768.30
2019-03-29T12:49:04.677Z,102768.05
2019-03-29T12:51:33.244Z,102761.33
2019-03-29T12:54:01.702Z,102751.92
2019-03-29T12:56:30.550Z,102756.63
2019-03-29T12:58:59.064Z,102750.14
2019-03-29T13:01:38.641Z,102743.03
2019-03-29T13:03:57.938Z,102731.86
2019-03-29T13:06:26.574Z,102727.26
2019-03-29T13:08:55.022Z,102726.52
2019-03-29T13:11:23.664Z,102722.45
2019-03-29T13:13:52.206Z,102723.72
2019-03-29T13:16:21.366Z,102727.12
2019-03-29T13:18:49.920Z,102723.33
2019-03-29T13:21:18.532Z,102715.39
2019-03-29T13:23:47.144Z,102712.47
2019-03-29T13:26:15.795Z,102705.37
2019-03-29T13:28:44.483Z,102699.94
2019-03-29T13:31:13.179Z,102698.00
2019-03-29T13:33:41.689Z,102691.58
2019-03-29T13:36:10.312Z,102687.20
2019-03-29T13:38:38.889Z,102679.73
2019-03-29T13:41:07.528Z,102675.42
2019-03-29T13:43:36.109Z,102668.48
2019-03-29T13:46:04.697Z,102671.69
2019-03-29T13:48:33.224Z,102665.54
2019-03-29T13:51:01.960Z,102654.25
2019-03-29T13:53:30.462Z,102657.59
2019-03-29T13:55:59.065Z,102650.98
2019-03-29T13:58:27.519Z,102653.74
2019-03-29T14:00:56.003Z,102645.01
2019-03-29T14:03:24.521Z,102641.31
2019-03-29T14:05:53.179Z,102634.25
2019-03-29T14:08:22.222Z,102633.11
2019-03-29T14:10:50.848Z,102627.58
2019-03-29T14:13:19.822Z,102620.69
2019-03-29T14:15:48.479Z,102616.58
2019-03-29T14:18:17.130Z,102608.06
2019-03-29T14:20:45.887Z,102603.39
2019-03-29T14:23:14.586Z,102600.20
2019-03-29T14:25:43.247Z,102596.64
2019-03-29T14:28:11.734Z,102590.52
2019-03-29T14:30:40.393Z,102592.39
2019-03-29T14:33:09.140Z,102584.52
2019-03-29T14:35:37.674Z,102587.94
2019-03-29T14:38:06.514Z,102579.09
2019-03-29T14:40:35.179Z,102584.66
2019-03-29T14:43:03.813Z,102576.19
2019-03-29T14:45:32.484Z,102575.31
2019-03-29T14:48:01.069Z,102570.95
2019-03-29T14:50:29.697Z,102573.88
2019-03-29T14:52:58.314Z,102573.41
2019-03-29T14:55:26.899Z,102565.71
2019-03-29T14:57:55.483Z,102558.80
2019-03-29T15:00:38.302Z,102552.27
2019-03-29T15:03:06.988Z,102546.52
2019-03-29T15:05:35.616Z,102547.38
2019-03-29T15:08:04.234Z,102531.45
2019-03-29T15:10:32.843Z,102527.23
2019-03-29T15:13:01.455Z,102532.80
2019-03-29T15:15:30.102Z,102530.44
2019-03-29T15:17:58.573Z,102526.62
2019-03-29T15:20:27.194Z,102524.33
2019-03-29T15:22:55.711Z,102513.33
2019-03-29T15:25:24.284Z,102518.34
2019-03-29T15:27:53.923Z,102512.52
2019-03-29T15:30:22.515Z,102512.47
2019-03-29T15:32:51.131Z,102508.48
2019-03-29T15:35:21.035Z,102506.23
2019-03-29T15:37:49.792Z,102505.08
2019-03-29T15:40:18.381Z,102502.88
2019-03-29T15:42:47.015Z,102497.94
2019-03-29T15:45:20.739Z,102499.48
2019-03-29T15:47:46.036Z,102497.53
2019-03-29T15:50:14.692Z,102487.14
2019-03-29T15:52:43.274Z,102485.02
2019-03-29T15:55:12.017Z,102480.87
2019-03-29T15:57:40.613Z,102478.06
2019-03-29T16:00:10.701Z,102474.84
2019-03-29T16:02:39.288Z,102476.55
2019-03-29T16:05:07.870Z,102479.72
2019-03-29T16:07:36.514Z,102472.91
2019-03-29T16:10:06.106Z,102473.37
2019-03-29T16:12:34.735Z,102470.27
2019-03-29T16:15:03.300Z,102470.95
2019-03-29T16:17:31.847Z,102472.27
2019-03-29T16:20:00.487Z,102466.64
2019-03-29T16:22:29.028Z,102468.61
2019-03-29T16:24:57.653Z,102457.98
2019-03-29T16:27:26.247Z,102452.04
2019-03-29T16:29:54.883Z,102452.24
2019-03-29T16:32:23.491Z,102449.28
2019-03-29T16:34:51.890Z,102448.53
2019-03-29T16:37:20.527Z,102447.39
2019-03-29T16:39:49.065Z,102448.37
2019-03-29T16:42:17.684Z,102442.00
2019-03-29T16:44:46.227Z,102436.95
2019-03-29T16:47:14.767Z,102438.72
2019-03-29T16:49:43.314Z,102432.36
2019-03-29T16:52:11.924Z,102430.82
2019-03-29T16:54:40.492Z,102435.20
2019-03-29T16:57:09.031Z,102431.55
2019-03-29T16:59:37.476Z,102423.80
2019-03-29T17:02:06.335Z,102423.94
2019-03-29T17:04:34.831Z,102428.87
2019-03-29T17:07:03.518Z,102427.26
2019-03-29T17:09:32.044Z,102423.23
2019-03-29T17:12:00.559Z,102419.84
2019-03-29T17:14:29.159Z,102430.19
2019-03-29T17:16:57.738Z,102418.63
2019-03-29T17:19:26.365Z,102424.30
2019-03-29T17:21:55.704Z,102420.92
2019-03-29T17:24:24.264Z,102420.92
2019-03-29T17:26:52.888Z,102425.53
2019-03-29T17:29:21.414Z,102429.77
2019-03-29T17:31:50.177Z,102424.41
2019-03-29T17:34:18.696Z,102428.81
2019-03-29T17:36:47.363Z,102425.08
2019-03-29T17:39:16.260Z,102432.59
2019-03-29T17:41:44.812Z,102428.71
2019-03-29T17:44:13.438Z,102434.21
2019-03-29T17:46:42.039Z,102426.16
2019-03-29T17:49:10.808Z,102427.08
2019-03-29T17:51:39.514Z,102428.00
2019-03-29T17:54:08.203Z,102425.02
2019-03-29T17:56:36.741Z,102429.37
2019-03-29T17:59:05.359Z,102432.83
2019-03-29T18:01:33.866Z,102424.81
2019-03-29T18:04:02.477Z,102431.21
2019-03-29T18:06:30.976Z,102436.69
2019-03-29T18:08:59.808Z,102437.25
2019-03-29T18:11:28.401Z,102434.75
2019-03-29T18:13:56.935Z,102436.05
2019-03-29T18:16:30.818Z,102436.33
2019-03-29T18:18:56.736Z,102436.86
2019-03-29T18:21:25.313Z,102435.15
2019-03-29T18:23:53.923Z,102432.82
2019-03-29T18:26:22.634Z,102435.38
2019-03-29T18:28:51.259Z,102434.44
2019-03-29T18:31:20.140Z,102429.16
2019-03-29T18:33:48.943Z,102436.86
2019-03-29T18:36:17.788Z,102441.34
2019-03-29T18:38:48.884Z,102448.20
2019-03-29T18:41:17.466Z,102446.96
2019-03-29T18:43:46.093Z,102447.95
2019-03-29T18:46:14.683Z,102451.52
2019-03-29T18:48:43.197Z,102453.84
2019-03-29T18:51:11.804Z,102450.66
2019-03-29T18:53:40.236Z,102452.08
2019-03-29T18:56:08.873Z,102447.94
2019-03-29T18:58:37.375Z,102446.81
2019-03-29T19:01:05.924Z,102445.17
2019-03-29T19:03:34.539Z,102450.55
2019-03-29T19:06:03.232Z,102450.27
2019-03-29T19:08:32.003Z,102445.66
2019-03-29T19:11:00.582Z,102439.55
2019-03-29T19:13:29.254Z,102444.53
2019-03-29T19:15:59.202Z,102440.34
2019-03-29T19:18:28.220Z,102442.64
2019-03-29T19:20:57.707Z,102454.25
2019-03-29T19:23:26.289Z,102455.50
2019-03-29T19:25:54.927Z,102455.83
2019-03-29T19:28:23.476Z,102453.30
2019-03-29T19:30:52.094Z,102455.42
2019-03-29T19:33:20.772Z,102450.78
2019-03-29T19:35:49.373Z,102454.61
2019-03-29T19:38:17.973Z,102454.17
2019-03-29T19:40:46.621Z,102453.23
2019-03-29T19:43:15.202Z,102449.97
2019-03-29T19:45:44.640Z,102452.60
2019-03-29T19:48:13.299Z,102452.65
2019-03-29T19:50:41.881Z,102459.18
2019-03-29T19:53:10.476Z,102455.02
2019-03-29T19:55:39.048Z,102451.64
2019-03-29T19:58:07.787Z,102451.03
2019-03-29T20:00:38.145Z,102452.45
2019-03-29T20:03:06.841Z,102456.87
2019-03-29T20:05:35.453Z,102454.94
2019-03-29T20:08:04.065Z,102457.95
2019-03-29T20:10:32.704Z,102453.91
2019-03-29T20:13:01.389Z,102447.42
2019-03-29T20:15:30.105Z,102451.42
2019-03-29T20:17:58.753Z,102454.13
2019-03-29T20:20:28.193Z,102454.50
2019-03-29T20:22:57.779Z,102455.81
2019-03-29T20:25:26.624Z,102451.08
2019-03-29T20:27:58.123Z,102449.27
2019-03-29T20:30:26.129Z,102447.43
2019-03-29T20:32:54.663Z,102443.68
2019-03-29T20:35:23.265Z,102452.42
2019-03-29T20:37:51.959Z,102437.78
2019-03-29T20:40:20.549Z,102444.86
2019-03-29T20:42:49.245Z,102444.31
2019-03-29T20:45:17.927Z,102445.95
2019-03-29T20:47:46.601Z,102443.75
2019-03-29T20:50:15.708Z,102447.20
2019-03-29T20:52:44.471Z,102455.05
2019-03-29T20:55:13.171Z,102445.78
2019-03-29T20:57:41.860Z,102445.78
2019-03-29T21:00:13.629Z,102448.34
2019-03-29T21:02:42.272Z,102443.23
2019-03-29T21:05:10.976Z,102446.56
2019-03-29T21:07:39.548Z,102444.97
2019-03-29T21:10:08.578Z,102440.07
2019-03-29T21:12:37.164Z,102443.34
2019-03-29T21:15:07.516Z,102440.89
2019-03-29T21:17:36.667Z,102438.45
2019-03-29T21:20:11.061Z,102432.20
2019-03-29T21:22:39.648Z,102436.53
2019-03-29T21:25:08.498Z,102429.42
2019-03-29T21:27:37.487Z,102430.45
2019-03-29T21:30:11.105Z,102429.92
2019-03-29T21:32:39.701Z,102423.09
2019-03-29T21:35:08.700Z,102422.34
2019-03-29T21:37:37.277Z,102421.08
2019-03-29T21:40:07.967Z,102423.53
2019-03-29T21:42:36.966Z,102426.55
2019-03-29T21:45:07.692Z,102425.47
2019-03-29T21:47:36.299Z,102430.84
2019-03-29T21:50:07.976Z,102421.61
2019-03-29T21:52:36.697Z,102421.38
2019-03-29T21:55:06.326Z,102421.66
2019-03-29T21:57:34.893Z,102421.38
2019-03-29T22:00:05.014Z,102424.32
2019-03-29T22:02:33.658Z,102421.33
2019-03-29T22:05:02.304Z,102425.13
2019-03-29T22:07:31.028Z,102427.54
2019-03-29T22:09:59.650Z,102422.72
2019-03-29T22:12:28.291Z,102421.64
2019-03-29T22:14:56.861Z,102417.86
2019-03-29T22:17:25.927Z,102430.82
2019-03-29T22:19:54.431Z,102425.89
2019-03-29T22:22:22.977Z,102419.36
2019-03-29T22:24:51.728Z,102420.93
2019-03-29T22:27:20.267Z,102426.11
2019-03-29T22:29:48.784Z,102418.07
2019-03-29T22:32:17.312Z,102409.98
2019-03-29T22:34:45.949Z,102410.00
2019-03-29T22:37:14.532Z,102407.53
2019-03-29T22:39:43.080Z,102399.95
2019-03-29T22:42:11.645Z,102403.47
2019-03-29T22:44:40.229Z,102402.64
2019-03-29T22:47:08.939Z,102394.80
2019-03-29T22:49:37.523Z,102398.53
2019-03-29T22:52:06.249Z,102401.97
2019-03-29T22:54:34.634Z,102400.47
2019-03-29T22:57:03.199Z,102399.12
2019-03-29T22:59:31.779Z,102399.18
2019-03-29T23:02:00.371Z,102393.48
2019-03-29T23:04:28.944Z,102393.84
2019-03-29T23:06:57.516Z,102384.69
2019-03-29T23:09:26.095Z,102385.80
2019-03-29T23:11:54.619Z,102386.90
2019-03-29T23:14:23.247Z,102374.96
2019-03-29T23:16:51.796Z,102379.34
2019-03-29T23:19:20.428Z,102378.52
2019-03-29T23:21:48.898Z,102367.06
2019-03-29T23:24:17.396Z,102372.14
2019-03-29T23:26:45.964Z,102367.73
2019-03-29T23:29:14.535Z,102368.11
2019-03-29T23:31:43.032Z,102372.59
2019-03-29T23:34:11.628Z,102369.42
2019-03-29T23:36:40.137Z,102359.75
2019-03-29T23:39:08.756Z,102362.06
2019-03-29T23:41:37.333Z,102359.72
2019-03-29T23:44:05.937Z,102354.59
2019-03-29T23:46:34.516Z,102349.17
2019-03-29T23:49:03.225Z,102344.03
2019-03-29T23:51:31.799Z,102347.53
2019-03-29T23:54:00.582Z,102348.91
2019-03-29T23:56:29.197Z,102349.41
2019-03-29T23:58:57.748Z,102347.42
